createdAt,value
2018-09-06T00:00:48.524Z,65.40
2018-09-06T00:01:52.833Z,68.17
2018-09-06T00:02:57.171Z,64.92
2018-09-06T00:04:01.374Z,64.42
2018-09-06T00:05:05.636Z,62.65
2018-09-06T00:06:09.885Z,68.80
2018-09-06T00:07:14.298Z,66.20
2018-09-06T00:08:18.510Z,70.92
2018-09-06T00:09:22.805Z,68.57
2018-09-06T00:10:27.119Z,62.40
2018-09-06T00:11:31.358Z,64.32
2018-09-06T00:12:35.675Z,64.60
2018-09-06T00:13:39.871Z,63.80
2018-09-06T00:14:44.138Z,67.40
2018-09-06T00:15:48.423Z,67.37
2018-09-06T00:16:52.763Z,62.00
2018-09-06T00:17:56.943Z,67.32
2018-09-06T00:19:01.119Z,61.23
2018-09-06T00:20:05.315Z,66.67
2018-09-06T00:21:09.503Z,59.00
2018-09-06T00:22:15.526Z,66.05
2018-09-06T00:23:19.765Z,68.70
2018-09-06T00:24:23.955Z,64.35
2018-09-06T00:25:28.152Z,66.72
2018-09-06T00:26:32.376Z,64.67
2018-09-06T00:27:36.576Z,69.40
2018-09-06T00:28:40.775Z,69.50
2018-09-06T00:29:44.983Z,71.70
2018-09-06T00:30:49.168Z,61.68
2018-09-06T00:31:53.529Z,69.67
2018-09-06T00:32:57.723Z,70.90
2018-09-06T00:34:01.906Z,69.75
2018-09-06T00:35:06.112Z,72.80
2018-09-06T00:36:10.306Z,72.60
2018-09-06T00:37:14.507Z,62.05
2018-09-06T00:38:18.718Z,64.05
2018-09-06T00:39:23.031Z,69.45
2018-09-06T00:40:27.319Z,65.60
2018-09-06T00:41:31.667Z,68.40
2018-09-06T00:42:35.863Z,61.90
2018-09-06T00:43:40.132Z,61.10
2018-09-06T00:44:44.340Z,75.10
2018-09-06T00:45:48.653Z,62.10
2018-09-06T00:46:52.867Z,71.28
2018-09-06T00:47:57.073Z,62.00
2018-09-06T00:49:01.341Z,64.20
2018-09-06T00:50:09.758Z,61.25
2018-09-06T00:51:14.001Z,56.37
2018-09-06T00:52:18.177Z,63.30
2018-09-06T00:53:22.598Z,59.10
2018-09-06T00:54:26.782Z,61.00
2018-09-06T00:55:30.966Z,60.60
2018-09-06T00:56:35.157Z,60.65
2018-09-06T00:57:39.362Z,61.80
2018-09-06T00:58:43.585Z,58.23
2018-09-06T00:59:47.824Z,60.23
2018-09-06T01:00:52.129Z,62.62
2018-09-06T01:01:56.550Z,60.03
2018-09-06T01:03:00.790Z,54.63
2018-09-06T01:04:05.364Z,63.68
2018-09-06T01:05:09.711Z,53.90
2018-09-06T01:06:13.904Z,51.80
2018-09-06T01:07:18.156Z,59.00
2018-09-06T01:08:22.324Z,52.93
2018-09-06T01:09:26.521Z,48.30
2018-09-06T01:10:30.749Z,53.15
2018-09-06T01:11:34.959Z,49.42
2018-09-06T01:12:39.202Z,53.60
2018-09-06T01:13:43.382Z,50.65
2018-09-06T01:14:47.542Z,50.58
2018-09-06T01:15:51.742Z,52.17
2018-09-06T01:16:55.946Z,46.60
2018-09-06T01:18:00.164Z,50.33
2018-09-06T01:19:04.365Z,51.28
2018-09-06T01:20:08.550Z,43.98
2018-09-06T01:21:12.968Z,43.35
2018-09-06T01:22:17.184Z,46.42
2018-09-06T01:23:21.391Z,49.18
2018-09-06T01:24:25.647Z,48.80
2018-09-06T01:26:02.302Z,47.27
2018-09-06T01:27:06.559Z,50.12
2018-09-06T01:28:11.126Z,42.27
2018-09-06T01:29:15.318Z,42.93
2018-09-06T01:30:19.493Z,44.60
2018-09-06T01:31:23.991Z,44.38
2018-09-06T01:32:28.374Z,45.50
2018-09-06T01:33:32.599Z,40.80
2018-09-06T01:34:36.844Z,39.90
2018-09-06T01:35:47.230Z,38.30
2018-09-06T01:36:51.443Z,40.98
2018-09-06T01:37:55.634Z,42.35
2018-09-06T01:38:59.864Z,40.88
2018-09-06T01:40:04.290Z,42.33
2018-09-06T01:41:08.491Z,45.80
2018-09-06T01:42:13.799Z,43.30
2018-09-06T01:43:18.103Z,41.00
2018-09-06T01:44:22.427Z,40.85
2018-09-06T01:45:26.648Z,45.25
2018-09-06T01:46:30.843Z,44.10
2018-09-06T01:47:35.145Z,41.13
2018-09-06T01:48:39.722Z,41.75
2018-09-06T01:49:43.988Z,43.52
2018-09-06T01:50:48.336Z,40.33
2018-09-06T01:51:52.651Z,42.08
2018-09-06T01:52:56.854Z,41.18
2018-09-06T01:54:01.604Z,43.33
2018-09-06T01:55:05.853Z,48.05
2018-09-06T01:56:10.047Z,44.15
2018-09-06T01:57:14.488Z,41.75
2018-09-06T01:58:18.654Z,45.83
2018-09-06T01:59:23.204Z,47.45
2018-09-06T02:00:27.358Z,52.78
2018-09-06T02:01:31.932Z,47.45
2018-09-06T02:02:36.170Z,45.12
2018-09-06T02:03:40.329Z,55.98
2018-09-06T02:04:44.529Z,48.05
2018-09-06T02:05:48.780Z,46.48
2018-09-06T02:06:53.089Z,50.40
2018-09-06T02:07:57.459Z,53.35
2018-09-06T02:09:01.654Z,54.25
2018-09-06T02:10:06.013Z,48.20
2018-09-06T02:11:10.217Z,54.93
2018-09-06T02:12:14.418Z,55.23
2018-09-06T02:13:18.616Z,57.20
2018-09-06T02:14:23.629Z,52.03
2018-09-06T02:15:28.309Z,56.28
2018-09-06T02:16:32.750Z,60.60
2018-09-06T02:17:36.989Z,54.35
2018-09-06T02:18:41.168Z,64.75
2018-09-06T02:19:45.377Z,60.48
2018-09-06T02:20:49.657Z,63.92
2018-09-06T02:21:53.895Z,53.08
2018-09-06T02:22:58.133Z,60.15
2018-09-06T02:24:02.411Z,60.92
2018-09-06T02:25:06.641Z,63.38
2018-09-06T02:26:10.921Z,67.08
2018-09-06T02:27:15.128Z,73.75
2018-09-06T02:28:19.858Z,63.13
2018-09-06T02:29:24.846Z,63.02
2018-09-06T02:30:29.107Z,73.92
2018-09-06T02:31:33.336Z,69.85
2018-09-06T02:32:37.544Z,66.20
2018-09-06T02:33:41.764Z,74.22
2018-09-06T02:34:45.945Z,66.85
2018-09-06T02:35:50.182Z,71.40
2018-09-06T02:36:54.393Z,65.92
2018-09-06T02:37:58.605Z,67.35
2018-09-06T02:39:02.950Z,70.80
2018-09-06T02:40:07.850Z,73.55
2018-09-06T02:41:12.035Z,74.00
2018-09-06T02:42:16.307Z,73.78
2018-09-06T02:43:20.514Z,72.72
2018-09-06T02:44:24.704Z,71.55
2018-09-06T02:45:28.870Z,69.72
2018-09-06T02:46:33.171Z,74.03
2018-09-06T02:47:41.562Z,76.77
2018-09-06T02:48:45.986Z,72.95
2018-09-06T02:49:55.650Z,71.40
2018-09-06T02:51:05.240Z,70.30
2018-09-06T02:52:09.459Z,73.25
2018-09-06T02:53:14.011Z,72.87
2018-09-06T02:54:18.487Z,72.08
2018-09-06T02:55:23.006Z,74.15
2018-09-06T02:56:27.189Z,75.40
2018-09-06T02:57:31.927Z,77.60
2018-09-06T02:58:36.252Z,77.32
2018-09-06T02:59:40.521Z,80.15
2018-09-06T03:00:44.729Z,77.27
2018-09-06T03:01:48.890Z,71.97
2018-09-06T03:02:53.210Z,71.12
2018-09-06T03:03:57.429Z,81.90
2018-09-06T03:05:01.665Z,85.55
2018-09-06T03:06:06.183Z,88.75
2018-09-06T03:07:10.354Z,82.40
2018-09-06T03:08:14.589Z,75.28
2018-09-06T03:09:20.246Z,76.25
2018-09-06T03:10:24.805Z,88.60
2018-09-06T03:11:34.399Z,83.45
2018-09-06T03:12:38.631Z,78.57
2018-09-06T03:13:42.856Z,97.02
2018-09-06T03:14:47.197Z,85.15
2018-09-06T03:15:51.520Z,95.28
2018-09-06T03:16:55.831Z,100.75
2018-09-06T03:18:00.288Z,85.90
2018-09-06T03:19:04.565Z,91.40
2018-09-06T03:20:09.046Z,82.40
2018-09-06T03:21:13.393Z,86.75
2018-09-06T03:22:17.601Z,84.00
2018-09-06T03:23:21.847Z,85.77
2018-09-06T03:24:26.111Z,87.75
2018-09-06T03:25:30.322Z,85.85
2018-09-06T03:26:34.581Z,83.15
2018-09-06T03:27:38.747Z,84.65
2018-09-06T03:28:43.104Z,87.50
2018-09-06T03:29:47.265Z,78.40
2018-09-06T03:30:51.554Z,88.47
2018-09-06T03:31:55.733Z,110.28
2018-09-06T03:32:59.920Z,107.52
2018-09-06T03:34:04.274Z,87.12
2018-09-06T03:35:08.470Z,93.47
2018-09-06T03:36:12.835Z,83.62
2018-09-06T03:37:17.229Z,103.58
2018-09-06T03:38:21.411Z,101.67
2018-09-06T03:39:25.606Z,96.15
2018-09-06T03:40:29.866Z,92.70
2018-09-06T03:41:34.105Z,88.58
2018-09-06T03:42:38.374Z,95.85
2018-09-06T03:43:42.795Z,85.40
2018-09-06T03:44:46.983Z,92.67
2018-09-06T03:45:51.152Z,79.25
2018-09-06T03:46:55.568Z,84.90
2018-09-06T03:48:00.527Z,96.45
2018-09-06T03:49:04.675Z,99.25
2018-09-06T03:50:09.001Z,89.52
2018-09-06T03:51:13.216Z,87.53
2018-09-06T03:52:17.434Z,97.37
2018-09-06T03:53:21.622Z,98.12
2018-09-06T03:54:26.055Z,95.97
2018-09-06T03:55:30.296Z,95.20
2018-09-06T03:56:34.622Z,92.02
2018-09-06T03:57:38.986Z,102.30
2018-09-06T03:58:43.209Z,101.92
2018-09-06T03:59:47.514Z,90.45
2018-09-06T04:00:51.703Z,82.57
2018-09-06T04:01:55.879Z,86.45
2018-09-06T04:03:00.127Z,84.60
2018-09-06T04:04:04.299Z,90.28
2018-09-06T04:05:08.502Z,83.37
2018-09-06T04:06:12.738Z,88.72
2018-09-06T04:07:16.952Z,90.17
2018-09-06T04:08:21.197Z,90.97
2018-09-06T04:09:25.453Z,91.45
2018-09-06T04:10:29.635Z,86.87
2018-09-06T04:11:33.819Z,93.27
2018-09-06T04:12:37.994Z,93.92
2018-09-06T04:13:42.364Z,98.05
2018-09-06T04:14:46.572Z,79.60
2018-09-06T04:15:50.791Z,90.28
2018-09-06T04:16:54.987Z,93.97
2018-09-06T04:17:59.294Z,83.95
2018-09-06T04:19:03.530Z,88.75
2018-09-06T04:20:07.966Z,102.95
2018-09-06T04:21:12.174Z,93.10
2018-09-06T04:22:16.364Z,89.22
2018-09-06T04:23:20.555Z,89.60
2018-09-06T04:24:24.838Z,95.28
2018-09-06T04:25:29.136Z,81.82
2018-09-06T04:26:33.415Z,90.75
2018-09-06T04:27:37.755Z,90.95
2018-09-06T04:28:41.967Z,91.00
2018-09-06T04:29:46.382Z,87.80
2018-09-06T04:30:50.618Z,90.75
2018-09-06T04:31:54.798Z,88.82
2018-09-06T04:32:59.032Z,90.72
2018-09-06T04:34:03.416Z,92.82
2018-09-06T04:35:07.670Z,93.07
2018-09-06T04:36:11.963Z,91.47
2018-09-06T04:37:16.100Z,91.22
2018-09-06T04:38:20.259Z,90.87
2018-09-06T04:39:24.456Z,103.32
2018-09-06T04:40:28.666Z,98.05
2018-09-06T04:41:32.891Z,93.65
2018-09-06T04:42:37.166Z,98.82
2018-09-06T04:43:41.414Z,92.78
2018-09-06T04:44:45.517Z,102.65
2018-09-06T04:45:49.766Z,96.75
2018-09-06T04:46:53.947Z,97.10
2018-09-06T04:47:58.135Z,102.97
2018-09-06T04:49:02.788Z,105.05
2018-09-06T04:50:06.963Z,87.45
2018-09-06T04:51:11.599Z,130.35
2018-09-06T04:52:15.792Z,103.17
2018-09-06T04:53:19.973Z,111.00
2018-09-06T04:54:24.166Z,109.12
2018-09-06T04:55:29.036Z,99.62
2018-09-06T04:56:33.270Z,96.22
2018-09-06T04:57:37.776Z,107.92
2018-09-06T04:58:42.163Z,101.78
2018-09-06T04:59:46.881Z,102.58
2018-09-06T05:00:51.145Z,99.50
2018-09-06T05:01:55.404Z,98.85
2018-09-06T05:02:59.553Z,87.95
2018-09-06T05:04:03.844Z,98.90
2018-09-06T05:05:07.970Z,94.30
2018-09-06T05:06:12.138Z,104.30
2018-09-06T05:07:16.378Z,100.50
2018-09-06T05:08:20.578Z,101.72
2018-09-06T05:09:24.864Z,101.42
2018-09-06T05:10:29.104Z,104.58
2018-09-06T05:11:33.767Z,101.95
2018-09-06T05:12:38.367Z,103.32
2018-09-06T05:13:43.038Z,96.00
2018-09-06T05:14:47.531Z,100.65
2018-09-06T05:15:51.994Z,100.62
2018-09-06T05:16:56.187Z,107.72
2018-09-06T05:18:00.426Z,106.15
2018-09-06T05:19:05.015Z,107.17
2018-09-06T05:20:09.292Z,100.78
2018-09-06T05:21:13.856Z,111.40
2018-09-06T05:22:18.101Z,103.55
2018-09-06T05:23:22.595Z,106.03
2018-09-06T05:24:27.177Z,103.62
2018-09-06T05:25:31.694Z,112.45
2018-09-06T05:26:35.905Z,106.85
2018-09-06T05:27:40.141Z,102.75
2018-09-06T05:28:44.956Z,114.37
2018-09-06T05:29:49.694Z,107.63
2018-09-06T05:30:54.420Z,103.15
2018-09-06T05:31:58.938Z,95.07
2018-09-06T05:33:03.154Z,104.50
2018-09-06T05:34:07.883Z,97.90
2018-09-06T05:35:12.164Z,100.82
2018-09-06T05:36:16.420Z,109.85
2018-09-06T05:37:21.119Z,114.90
2018-09-06T05:38:25.987Z,98.03
2018-09-06T05:39:30.948Z,104.90
2018-09-06T05:40:35.422Z,105.05
2018-09-06T05:41:40.588Z,104.70
2018-09-06T05:42:45.325Z,124.67
2018-09-06T05:43:49.813Z,110.80
2018-09-06T05:44:54.042Z,105.12
2018-09-06T05:45:58.454Z,110.15
2018-09-06T05:47:03.102Z,103.02
2018-09-06T05:48:07.842Z,99.28
2018-09-06T05:49:12.523Z,92.97
2018-09-06T05:50:16.775Z,94.65
2018-09-06T05:51:21.388Z,98.52
2018-09-06T05:52:25.615Z,108.97
2018-09-06T05:53:29.871Z,102.67
2018-09-06T05:54:34.168Z,97.40
2018-09-06T05:55:38.768Z,103.62
2018-09-06T05:56:42.996Z,103.58
2018-09-06T05:57:47.730Z,92.70
2018-09-06T05:58:52.367Z,99.35
2018-09-06T05:59:56.827Z,90.28
2018-09-06T06:01:00.992Z,100.00
2018-09-06T06:02:05.195Z,92.47
2018-09-06T06:03:09.367Z,99.97
2018-09-06T06:04:13.535Z,103.70
2018-09-06T06:05:18.102Z,101.40
2018-09-06T06:06:22.864Z,103.78
2018-09-06T06:07:41.192Z,97.42
2018-09-06T06:08:47.278Z,92.22
2018-09-06T06:09:51.449Z,92.95
2018-09-06T06:10:55.658Z,94.62
2018-09-06T06:12:00.260Z,94.70
2018-09-06T06:13:04.843Z,91.72
2018-09-06T06:14:09.235Z,97.45
2018-09-06T06:15:13.837Z,98.67
2018-09-06T06:16:18.338Z,92.85
2018-09-06T06:17:22.815Z,90.85
2018-09-06T06:18:27.307Z,97.37
2018-09-06T06:19:31.606Z,87.75
2018-09-06T06:20:35.878Z,93.05
2018-09-06T06:21:40.182Z,93.70
2018-09-06T06:22:44.432Z,106.17
2018-09-06T06:23:48.940Z,90.55
2018-09-06T06:24:53.668Z,90.50
2018-09-06T06:25:58.228Z,99.97
2018-09-06T06:27:02.824Z,86.17
2018-09-06T06:28:07.747Z,93.10
2018-09-06T06:29:12.025Z,94.65
2018-09-06T06:30:16.243Z,86.82
2018-09-06T06:31:20.510Z,86.55
2018-09-06T06:32:25.564Z,82.05
2018-09-06T06:33:29.771Z,81.12
2018-09-06T06:34:33.974Z,88.78
2018-09-06T06:35:38.313Z,95.25
2018-09-06T06:36:43.139Z,90.72
2018-09-06T06:37:47.335Z,92.50
2018-09-06T06:38:51.576Z,85.57
2018-09-06T06:39:55.831Z,82.17
2018-09-06T06:40:59.962Z,84.95
2018-09-06T06:42:04.226Z,90.38
2018-09-06T06:43:08.423Z,83.60
2018-09-06T06:44:12.817Z,87.85
2018-09-06T06:45:17.075Z,76.42
2018-09-06T06:46:21.261Z,85.97
2018-09-06T06:47:26.035Z,79.03
2018-09-06T06:48:30.223Z,83.60
2018-09-06T06:49:34.486Z,80.95
2018-09-06T06:50:38.780Z,85.07
2018-09-06T06:51:43.016Z,86.78
2018-09-06T06:52:47.232Z,86.42
2018-09-06T06:53:51.560Z,73.47
2018-09-06T06:54:55.760Z,76.72
2018-09-06T06:56:00.237Z,85.03
2018-09-06T06:57:04.600Z,84.28
2018-09-06T06:58:08.907Z,78.90
2018-09-06T06:59:13.063Z,79.70
2018-09-06T07:00:17.926Z,90.17
2018-09-06T07:01:22.147Z,68.05
2018-09-06T07:02:26.306Z,78.90
2018-09-06T07:03:30.508Z,90.80
2018-09-06T07:04:34.723Z,89.15
2018-09-06T07:05:39.325Z,71.90
2018-09-06T07:06:43.882Z,85.53
2018-09-06T07:07:48.457Z,78.45
2018-09-06T07:08:52.664Z,80.53
2018-09-06T07:09:56.971Z,78.55
2018-09-06T07:11:01.176Z,80.72
2018-09-06T07:12:05.346Z,85.62
2018-09-06T07:13:10.002Z,82.20
2018-09-06T07:14:14.330Z,75.40
2018-09-06T07:15:18.546Z,74.42
2018-09-06T07:16:22.780Z,78.97
2018-09-06T07:17:26.974Z,76.97
2018-09-06T07:18:31.751Z,73.60
2018-09-06T07:19:35.962Z,79.60
2018-09-06T07:20:40.172Z,70.57
2018-09-06T07:21:44.412Z,79.55
2018-09-06T07:22:48.612Z,71.95
2018-09-06T07:23:52.810Z,76.47
2018-09-06T07:24:57.108Z,81.53
2018-09-06T07:26:07.932Z,68.50
2018-09-06T07:27:12.153Z,71.92
2018-09-06T07:28:16.371Z,74.65
2018-09-06T07:29:20.511Z,83.25
2018-09-06T07:30:24.730Z,75.35
2018-09-06T07:31:28.874Z,77.70
2018-09-06T07:32:33.063Z,74.32
2018-09-06T07:33:37.278Z,74.90
2018-09-06T07:34:41.486Z,71.25
2018-09-06T07:35:45.715Z,76.17
2018-09-06T07:36:49.858Z,69.10
2018-09-06T07:37:54.103Z,71.50
2018-09-06T07:38:58.456Z,61.02
2018-09-06T07:40:02.777Z,101.60
2018-09-06T07:41:07.033Z,65.55
2018-09-06T07:42:11.192Z,81.70
2018-09-06T07:43:15.451Z,71.12
2018-09-06T07:44:19.729Z,64.17
2018-09-06T07:45:23.893Z,69.37
2018-09-06T07:46:28.549Z,67.60
2018-09-06T07:47:33.425Z,62.67
2018-09-06T07:48:37.824Z,66.87
2018-09-06T07:49:41.994Z,75.17
2018-09-06T07:50:46.216Z,71.60
2018-09-06T07:51:50.662Z,80.25
2018-09-06T07:52:54.925Z,75.67
2018-09-06T07:53:59.672Z,77.17
2018-09-06T07:55:03.891Z,79.07
2018-09-06T07:56:08.777Z,76.22
2018-09-06T07:57:12.953Z,74.17
2018-09-06T07:58:17.191Z,78.70
2018-09-06T07:59:21.399Z,70.87
2018-09-06T08:00:25.596Z,78.45
2018-09-06T08:01:29.852Z,87.17
2018-09-06T08:02:34.056Z,77.80
2018-09-06T08:03:38.302Z,76.92
2018-09-06T08:04:42.575Z,78.15
2018-09-06T08:05:46.782Z,77.65
2018-09-06T08:06:51.343Z,81.40
2018-09-06T08:07:55.766Z,73.02
2018-09-06T08:08:59.999Z,79.20
2018-09-06T08:10:04.622Z,84.30
2018-09-06T08:11:08.833Z,71.95
2018-09-06T08:12:13.196Z,67.65
2018-09-06T08:13:17.363Z,70.85
2018-09-06T08:14:21.543Z,79.95
2018-09-06T08:15:25.993Z,67.67
2018-09-06T08:16:30.275Z,68.92
2018-09-06T08:17:34.918Z,77.12
2018-09-06T08:18:40.198Z,68.87
2018-09-06T08:19:44.369Z,76.97
2018-09-06T08:20:48.728Z,68.42
2018-09-06T08:21:52.951Z,72.60
2018-09-06T08:22:57.131Z,69.20
2018-09-06T08:24:01.466Z,67.05
2018-09-06T08:25:05.716Z,66.57
2018-09-06T08:26:09.946Z,69.47
2018-09-06T08:27:14.215Z,75.32
2018-09-06T08:28:18.392Z,69.37
2018-09-06T08:29:22.727Z,63.42
2018-09-06T08:30:27.325Z,65.78
2018-09-06T08:31:31.636Z,70.35
2018-09-06T08:32:35.823Z,70.60
2018-09-06T08:33:40.063Z,73.87
2018-09-06T08:34:44.243Z,72.67
2018-09-06T08:35:48.444Z,79.50
2018-09-06T08:36:52.836Z,79.35
2018-09-06T08:37:57.039Z,99.87
2018-09-06T08:39:01.264Z,77.42
2018-09-06T08:40:05.509Z,74.32
2018-09-06T08:41:09.759Z,77.97
2018-09-06T08:42:13.948Z,76.87
2018-09-06T08:43:18.163Z,85.40
2018-09-06T08:44:22.421Z,77.42
2018-09-06T08:45:26.757Z,86.28
2018-09-06T08:46:31.001Z,84.67
2018-09-06T08:47:35.357Z,88.72
2018-09-06T08:48:39.751Z,80.53
2018-09-06T08:49:43.966Z,81.95
2018-09-06T08:50:49.178Z,87.22
2018-09-06T08:51:53.367Z,80.70
2018-09-06T08:52:58.097Z,75.47
2018-09-06T08:54:05.377Z,76.82
2018-09-06T08:55:09.684Z,84.67
2018-09-06T08:56:14.111Z,85.50
2018-09-06T08:57:18.324Z,82.88
2018-09-06T08:58:22.559Z,84.22
2018-09-06T08:59:26.796Z,79.92
2018-09-06T09:00:31.093Z,81.20
2018-09-06T09:01:41.754Z,83.15
2018-09-06T09:02:46.153Z,85.75
2018-09-06T09:03:50.256Z,92.50
2018-09-06T09:04:54.495Z,81.87
2018-09-06T09:05:58.766Z,93.67
2018-09-06T09:07:02.989Z,85.72
2018-09-06T09:08:07.203Z,94.92
2018-09-06T09:09:15.091Z,102.15
2018-09-06T09:10:21.691Z,91.10
2018-09-06T09:11:25.987Z,92.85
2018-09-06T09:12:30.347Z,94.07
2018-09-06T09:13:34.722Z,95.55
2018-09-06T09:14:38.992Z,94.52
2018-09-06T09:15:43.322Z,99.62
2018-09-06T09:16:47.584Z,102.35
2018-09-06T09:17:51.840Z,100.97
2018-09-06T09:18:56.114Z,90.17
2018-09-06T09:20:00.581Z,92.40
2018-09-06T09:21:05.021Z,86.50
2018-09-06T09:22:09.242Z,88.55
2018-09-06T09:23:13.431Z,90.28
2018-09-06T09:24:17.623Z,97.88
2018-09-06T09:25:21.940Z,95.42
2018-09-06T09:26:26.130Z,80.70
2018-09-06T09:27:30.375Z,86.75
2018-09-06T09:28:34.812Z,86.20
2018-09-06T09:29:39.025Z,92.33
2018-09-06T09:30:43.353Z,83.78
2018-09-06T09:31:47.549Z,92.35
2018-09-06T09:32:51.767Z,88.60
2018-09-06T09:33:56.097Z,101.20
2018-09-06T09:35:00.470Z,95.70
2018-09-06T09:36:05.001Z,91.05
2018-09-06T09:37:09.135Z,98.00
2018-09-06T09:38:13.343Z,92.30
2018-09-06T09:39:17.564Z,80.70
2018-09-06T09:40:21.744Z,80.45
2018-09-06T09:41:25.962Z,86.35
2018-09-06T09:42:30.207Z,74.80
2018-09-06T09:43:34.421Z,84.55
2018-09-06T09:44:38.675Z,83.50
2018-09-06T09:45:42.872Z,80.30
2018-09-06T09:47:50.463Z,86.35
2018-09-06T09:49:58.045Z,76.50
2018-09-06T09:51:02.355Z,74.62
2018-09-06T09:52:06.867Z,78.67
2018-09-06T09:53:11.059Z,80.92
2018-09-06T09:54:15.255Z,76.72
2018-09-06T09:55:19.453Z,84.55
2018-09-06T09:56:23.954Z,71.37
2018-09-06T09:57:28.206Z,69.85
2018-09-06T09:58:32.356Z,53.55
2018-09-06T09:59:36.552Z,51.88
2018-09-06T10:00:42.040Z,60.17
2018-09-06T10:01:51.450Z,55.52
2018-09-06T10:03:01.070Z,52.38
2018-09-06T10:04:10.406Z,57.10
2018-09-06T10:05:20.031Z,56.40
2018-09-06T10:06:29.450Z,53.33
2018-09-06T10:07:38.875Z,52.17
2018-09-06T10:08:48.642Z,68.40
2018-09-06T10:09:52.819Z,60.78
2018-09-06T10:10:57.112Z,58.28
2018-09-06T10:12:01.389Z,61.20
2018-09-06T10:13:05.567Z,60.50
2018-09-06T10:14:09.797Z,61.18
2018-09-06T10:15:14.029Z,64.12
2018-09-06T10:16:18.281Z,64.67
2018-09-06T10:17:22.671Z,63.80
2018-09-06T10:18:26.873Z,70.32
2018-09-06T10:19:31.093Z,62.62
2018-09-06T10:20:35.390Z,65.72
2018-09-06T10:21:39.595Z,80.22
2018-09-06T10:22:43.832Z,79.10
2018-09-06T10:23:48.038Z,89.30
2018-09-06T10:24:52.463Z,78.10
2018-09-06T10:25:56.739Z,70.22
2018-09-06T10:27:00.909Z,85.72
2018-09-06T10:28:05.131Z,78.07
2018-09-06T10:29:09.470Z,71.80
2018-09-06T10:30:13.698Z,85.10
2018-09-06T10:31:17.842Z,84.03
2018-09-06T10:32:22.030Z,82.60
2018-09-06T10:33:26.233Z,79.90
2018-09-06T10:34:30.563Z,84.35
2018-09-06T10:35:34.803Z,81.37
2018-09-06T10:36:38.954Z,92.67
2018-09-06T10:37:43.174Z,90.75
2018-09-06T10:38:47.353Z,86.75
2018-09-06T10:39:51.577Z,95.67
2018-09-06T10:40:55.810Z,87.92
2018-09-06T10:41:59.966Z,85.53
2018-09-06T10:43:04.183Z,81.70
2018-09-06T10:44:08.394Z,82.17
2018-09-06T10:45:12.876Z,82.30
2018-09-06T10:46:17.203Z,80.30
2018-09-06T10:47:21.401Z,85.45
2018-09-06T10:48:25.678Z,91.15
2018-09-06T10:49:29.891Z,85.77
2018-09-06T10:50:34.096Z,89.95
2018-09-06T10:51:38.298Z,88.60
2018-09-06T10:52:42.703Z,78.17
2018-09-06T10:53:46.919Z,82.65
2018-09-06T10:54:51.093Z,83.30
2018-09-06T10:55:55.594Z,76.92
2018-09-06T10:57:00.173Z,87.02
2018-09-06T10:58:04.781Z,86.28
2018-09-06T10:59:09.021Z,98.20
2018-09-06T11:00:13.318Z,83.78
2018-09-06T11:01:21.363Z,82.60
2018-09-06T11:02:26.062Z,80.62
2018-09-06T11:03:30.491Z,83.55
2018-09-06T11:04:34.741Z,92.00
2018-09-06T11:05:39.399Z,87.65
2018-09-06T11:06:43.671Z,88.00
2018-09-06T11:07:47.906Z,97.33
2018-09-06T11:08:52.061Z,97.00
2018-09-06T11:09:56.273Z,93.33
2018-09-06T11:11:00.625Z,100.25
2018-09-06T11:12:04.969Z,101.38
2018-09-06T11:13:09.365Z,105.65
2018-09-06T11:14:13.568Z,86.17
2018-09-06T11:15:17.701Z,98.25
2018-09-06T11:16:22.109Z,104.27
2018-09-06T11:17:26.574Z,85.97
2018-09-06T11:18:30.769Z,94.62
2018-09-06T11:19:34.999Z,84.92
2018-09-06T11:20:39.143Z,99.70
2018-09-06T11:21:43.592Z,98.90
2018-09-06T11:22:47.874Z,102.80
2018-09-06T11:23:52.010Z,100.07
2018-09-06T11:24:56.219Z,90.67
2018-09-06T11:26:00.416Z,98.12
2018-09-06T11:27:04.639Z,100.27
2018-09-06T11:28:08.906Z,109.50
2018-09-06T11:29:13.185Z,99.92
2018-09-06T11:30:17.376Z,89.35
2018-09-06T11:31:27.880Z,99.20
2018-09-06T11:32:32.089Z,95.12
2018-09-06T11:33:36.628Z,101.35
2018-09-06T11:34:40.850Z,92.15
2018-09-06T11:35:45.047Z,92.97
2018-09-06T11:36:49.476Z,90.42
2018-09-06T11:37:53.653Z,94.20
2018-09-06T11:38:58.224Z,109.65
2018-09-06T11:40:02.535Z,100.42
2018-09-06T11:41:06.826Z,114.20
2018-09-06T11:42:11.268Z,112.52
2018-09-06T11:43:15.488Z,93.92
2018-09-06T11:44:19.667Z,87.10
2018-09-06T11:45:24.012Z,94.28
2018-09-06T11:46:28.163Z,90.70
2018-09-06T11:47:32.779Z,108.67
2018-09-06T11:48:37.364Z,100.87
2018-09-06T11:49:41.588Z,109.60
2018-09-06T11:50:45.830Z,101.02
2018-09-06T11:51:50.092Z,104.78
2018-09-06T11:52:54.317Z,102.50
2018-09-06T11:53:58.524Z,118.02
2018-09-06T11:55:02.737Z,84.65
2018-09-06T11:56:07.464Z,93.80
2018-09-06T11:57:11.914Z,96.55
2018-09-06T11:58:16.133Z,104.75
2018-09-06T11:59:20.421Z,103.75
2018-09-06T12:00:24.803Z,92.08
2018-09-06T12:01:29.114Z,113.70
2018-09-06T12:02:33.309Z,105.15
2018-09-06T12:03:37.528Z,90.57
2018-09-06T12:04:41.709Z,99.13
2018-09-06T12:05:45.941Z,101.62
2018-09-06T12:06:50.186Z,107.70
2018-09-06T12:07:54.367Z,108.32
2018-09-06T12:08:58.603Z,104.63
2018-09-06T12:10:02.819Z,107.60
2018-09-06T12:11:07.040Z,100.38
2018-09-06T12:12:11.359Z,101.42
2018-09-06T12:13:15.615Z,102.58
2018-09-06T12:14:19.778Z,111.52
2018-09-06T12:15:23.964Z,98.37
2018-09-06T12:16:28.142Z,100.07
2018-09-06T12:17:32.374Z,108.25
2018-09-06T12:18:36.590Z,116.45
2018-09-06T12:19:40.830Z,114.42
2018-09-06T12:20:45.163Z,112.03
2018-09-06T12:21:49.359Z,109.87
2018-09-06T12:22:53.683Z,110.55
2018-09-06T12:23:58.158Z,117.08
2018-09-06T12:25:02.412Z,121.90
2018-09-06T12:26:06.952Z,121.47
2018-09-06T12:27:11.574Z,115.60
2018-09-06T12:28:16.006Z,119.15
2018-09-06T12:29:20.245Z,112.22
2018-09-06T12:30:24.517Z,109.20
2018-09-06T12:31:28.765Z,120.33
2018-09-06T12:32:33.386Z,122.62
2018-09-06T12:33:37.722Z,103.80
2018-09-06T12:34:41.883Z,109.60
2018-09-06T12:35:46.099Z,101.00
2018-09-06T12:36:50.298Z,103.87
2018-09-06T12:37:54.502Z,104.17
2018-09-06T12:38:58.965Z,104.07
2018-09-06T12:40:03.370Z,105.70
2018-09-06T12:41:07.546Z,97.55
2018-09-06T12:42:12.081Z,91.30
2018-09-06T12:43:16.278Z,102.25
2018-09-06T12:44:20.741Z,105.20
2018-09-06T12:45:24.955Z,103.47
2018-09-06T12:46:29.230Z,99.95
2018-09-06T12:47:33.683Z,95.20
2018-09-06T12:48:37.955Z,101.05
2018-09-06T12:49:42.283Z,99.37
2018-09-06T12:50:46.410Z,99.17
2018-09-06T12:51:50.762Z,96.10
2018-09-06T12:52:54.977Z,93.03
2018-09-06T12:53:59.199Z,92.45
2018-09-06T12:55:03.593Z,99.47
2018-09-06T12:56:07.801Z,98.60
2018-09-06T12:57:12.313Z,100.87
2018-09-06T12:58:16.513Z,94.30
2018-09-06T12:59:20.722Z,106.03
2018-09-06T13:00:24.977Z,102.05
2018-09-06T13:01:29.141Z,131.50
2018-09-06T13:02:33.606Z,100.85
2018-09-06T13:03:37.798Z,94.62
2018-09-06T13:04:42.018Z,91.85
2018-09-06T13:05:46.283Z,95.53
2018-09-06T13:06:50.431Z,82.65
2018-09-06T13:07:54.607Z,78.85
2018-09-06T13:08:58.919Z,77.65
2018-09-06T13:10:03.182Z,83.97
2018-09-06T13:11:07.525Z,89.77
2018-09-06T13:12:11.697Z,86.30
2018-09-06T13:13:15.874Z,88.10
2018-09-06T13:14:20.105Z,87.33
2018-09-06T13:15:24.284Z,85.07
2018-09-06T13:16:28.470Z,90.32
2018-09-06T13:17:32.673Z,88.25
2018-09-06T13:18:36.898Z,86.35
2018-09-06T13:19:41.134Z,87.65
2018-09-06T13:20:45.335Z,85.50
2018-09-06T13:21:49.646Z,85.67
2018-09-06T13:22:54.163Z,95.60
2018-09-06T13:23:58.463Z,95.53
2018-09-06T13:25:02.608Z,95.67
2018-09-06T13:26:06.795Z,103.70
2018-09-06T13:27:11.009Z,99.35
2018-09-06T13:28:15.181Z,94.92
2018-09-06T13:29:19.403Z,115.80
2018-09-06T13:30:23.559Z,107.10
2018-09-06T13:31:27.799Z,102.30
2018-09-06T13:32:32.047Z,105.10
2018-09-06T13:33:36.206Z,99.70
2018-09-06T13:34:40.413Z,107.90
2018-09-06T13:35:44.731Z,89.92
2018-09-06T13:36:48.856Z,93.92
2018-09-06T13:37:53.573Z,100.22
2018-09-06T13:38:57.958Z,97.37
2018-09-06T13:40:02.202Z,99.47
2018-09-06T13:41:06.386Z,98.85
2018-09-06T13:42:10.561Z,99.97
2018-09-06T13:43:14.785Z,103.75
2018-09-06T13:44:18.978Z,82.50
2018-09-06T13:45:23.578Z,90.32
2018-09-06T13:46:27.739Z,94.67
2018-09-06T13:47:31.948Z,84.20
2018-09-06T13:48:36.179Z,94.62